METAR stanice u blizini

 

LYBE - Beograd / Surčin, Srbija
Ažurirano: 29/01/2020 11:00
Vedro
Vedro
 Pravac vetra J
Vetar: J 11 km/h
Temperatura: 7°C
Osećaj hladnoće: 5°C
Tačka rose: 2°C
Vlažnost: 71%
Pritisak: 1011 hPa
Pregled: Vedro
Vidljivost: greater than 10 km
2020/01/29 10:00 LYBE 291000Z 17006KT CAVOK 07/02 Q1011 NOSIG
LYBT - Beograd / Batajnica, Srbija
Ažurirano: 29/01/2020 11:00
Vedro
Vedro
 Pravac vetra JI
Vetar: JI 9 km/h
Temperatura: 7°C
Osećaj hladnoće: 6°C
Tačka rose: 3°C
Vlažnost: 76%
Pritisak: 1011 hPa
Pregled: Vedro
Vidljivost: greater than 10 km
2020/01/29 10:00 LYBT 291000Z 14005KT 110V170 CAVOK 07/03 Q1011 NOSIG
LYVR - Vršac, Srbija
Ažurirano: 29/01/2020 11:00
Partly Cloudy
Partly Cloudy
 Pravac vetra JI
Vetar: JI 15 km/h
Temperatura: 5°C
Osećaj hladnoće: 2°C
Tačka rose: 3°C
Vlažnost: 87%
Pritisak: 1012 hPa
Oblaci: Partly Cloudy
Vidljivost: 10 km
Cloud details: Few Clouds 305 m
Partly Cloudy 488 m
2020/01/29 10:00 LYVR 291000Z 14008KT 100V210 9999 FEW010 SCT016 05/03 Q1012 NOSIG
 
LYKV - Lađevci, Srbija
Ažurirano: 29/01/2020 11:00
Vedro
Vedro
 Pravac vetra varies
Vetar: varies 2 km/h
Temperatura: 7°C
Tačka rose: 7°C
Vlažnost: 100%
Pritisak: 1012 hPa
Pregled: Vedro
Vidljivost: greater than 10 km
2020/01/29 10:00 LYKV 291000Z VRB01KT CAVOK 07/07 Q1012 NOSIG
LYNI - Niš, Srbija
Ažurirano: 29/01/2020 11:00
Mostly Cloudy
Mostly Cloudy
 Pravac vetra varies
Vetar: varies 4 km/h
Temperatura: 4°C
Tačka rose: 2°C
Vlažnost: 87%
Pritisak: 1013 hPa
Oblaci: Mostly Cloudy
Vidljivost: 10 km
Cloud details: Mostly Cloudy 305 m
Mostly Cloudy 701 m
2020/01/29 10:00 LYNI 291000Z VRB02KT 9999 BKN010 BKN023 04/02 Q1013 NOSIG
BKPR - Priština, Srbija
Ažurirano: 29/01/2020 11:30
Mostly Cloudy
Mostly Cloudy
 Pravac vetra JI
Vetar: JI 7 km/h
Temperatura: 6°C
Osećaj hladnoće: 4°C
Tačka rose: 0°C
Vlažnost: 66%
Pritisak: 1012 hPa
Oblaci: Mostly Cloudy
Vidljivost: 10 km
Cloud details: Partly Cloudy 914 m
Mostly Cloudy 2134 m
2020/01/29 10:30 BKPR 291030Z 13004KT 100V160 9999 SCT030 BKN070 06/00 Q1012 NOSIG RMK 17290095
 
LHPP - Pecs / Pogany, Hungary
Ažurirano: 29/01/2020 10:45
Vedro
Vedro
 Pravac vetra JZ
Vetar: JZ 4 km/h
Temperatura: 3°C
Tačka rose: 2°C
Vlažnost: 93%
Pritisak: 1009 hPa
Pregled: Vedro
Vidljivost: greater than 10 km
2020/01/29 09:45 LHPP 290945Z 23002KT CAVOK 03/02 Q1009
LHUD - Szeged, Hungary
Ažurirano: 04/07/2019 01:45
NOT Current
Vedro
Vedro
 Pravac vetra S
Vetar: S 7 km/h
Temperatura: 18°C
Tačka rose: 13°C
Vlažnost: 73%
Pritisak: 1019 hPa
Pregled: Vedro
Vidljivost: greater than 10 km
2019/07/03 23:45 LHUD 032345Z 35004KT CAVOK 18/13 Q1019
LRTR - Timisoara, Romania
Ažurirano: 29/01/2020 11:00
Mostly Cloudy
Mostly Cloudy
 Pravac vetra JJZ
Vetar: JJZ 13 km/h
Temperatura: 4°C
Osećaj hladnoće: 1°C
Tačka rose: 3°C
Vlažnost: 93%
Pritisak: 1012 hPa
Oblaci: Mostly Cloudy
Vidljivost: 10 km
Cloud details: Few Clouds 152 m
Mostly Cloudy 335 m
2020/01/29 10:00 LRTR 291000Z 21007KT 9999 FEW005 BKN011 04/03 Q1012 R11/19//95 NOSIG
 
LRCV - Craiova, Romania
Ažurirano: 29/01/2020 11:00
Vedro
Vedro
 Pravac vetra ZSZ
Vetar: ZSZ 33 km/h
Temperatura: 9°C
Osećaj hladnoće: 5°C
Tačka rose: 3°C
Vlažnost: 66%
Pritisak: 1007 hPa
Pregled: Vedro
Vidljivost: greater than 10 km
2020/01/29 10:00 LRCV 291000Z 29018KT CAVOK 09/03 Q1007 R27/19//95
LBSF - Sofia, Bulgaria
Ažurirano: 29/01/2020 11:00
Few Clouds
Few Clouds
 Pravac vetra ZSZ
Vetar: ZSZ 20 km/h
Temperatura: 4°C
Osećaj hladnoće: -1°C
Tačka rose: 2°C
Vlažnost: 87%
Pritisak: 1011 hPa
Oblaci: Few Clouds
Vidljivost: 10 km
Cloud details: Few Clouds 549 m
2020/01/29 10:00 LBSF 291000Z 29011KT 9999 FEW018 04/02 Q1011 R99/29//95 NOSIG
LWSK - Skoplje, Makedonija
Ažurirano: 29/01/2020 11:00
Mostly Cloudy
Mostly Cloudy
 Pravac vetra SI
Vetar: SI 11 km/h
Temperatura: 6°C
Osećaj hladnoće: 4°C
Tačka rose: 4°C
Vlažnost: 87%
Pritisak: 1013 hPa
Oblaci: Mostly Cloudy
Vidljivost: 10 km
Cloud details: Partly Cloudy 457 m
Mostly Cloudy 914 m
Mostly Cloudy 1920 m
2020/01/29 10:00 LWSK 291000Z 04006KT 9999 SCT015 BKN030 BKN063 06/04 Q1013 NOSIG
 
LYPG - Podgorica, Crna Gora
Ažurirano: 29/01/2020 11:00
Mostly Cloudy
Mostly Cloudy
 Pravac vetra varies
Vetar: varies 4 km/h
Temperatura: 12°C
Tačka rose: 9°C
Vlažnost: 82%
Pritisak: 1012 hPa
Oblaci: Mostly Cloudy
Vidljivost: 10 km
Cloud details: Partly Cloudy 914 m
Mostly Cloudy 2438 m
2020/01/29 10:00 LYPG 291000Z VRB02KT 9999 SCT030 BKN080 12/09 Q1012 NOSIG
LQSA - Sarajevo, Bosna i Hercegovina
Ažurirano: 29/01/2020 11:00
Partly Cloudy
Partly Cloudy
 Pravac vetra JI
Vetar: JI 6 km/h
Temperatura: 3°C
Tačka rose: 3°C
Vlažnost: 100%
Pritisak: 1010 hPa
Oblaci: Partly Cloudy
Vidljivost: 6 km
Cloud details: Few Clouds 183 m
Partly Cloudy 457 m
2020/01/29 10:00 LQSA 291000Z 14003KT 090V180 6000 FEW006 SCT015 03/03 Q1010 NOSIG
LDOS - Osijek, Hrvatksa
Ažurirano: 29/01/2020 11:00
Vedro
Vedro
 Pravac vetra varies
Vetar: varies 4 km/h
Temperatura: 5°C
Tačka rose: 2°C
Vlažnost: 81%
Pritisak: 1010 hPa
Pregled: Vedro
Vidljivost: greater than 10 km
2020/01/29 10:00 LDOS 291000Z VRB02KT CAVOK 05/02 Q1010